createdAt,value
2019-04-26T00:00:00.614Z,11.97
2019-04-26T00:01:00.355Z,12.02
2019-04-26T00:02:00.642Z,11.87
2019-04-26T00:03:00.113Z,11.91
2019-04-26T00:04:00.935Z,11.68
2019-04-26T00:05:00.123Z,11.77
2019-04-26T00:06:00.360Z,11.73
2019-04-26T00:07:00.823Z,11.7
2019-04-26T00:08:00.170Z,11.77
2019-04-26T00:09:00.720Z,11.72
2019-04-26T00:10:00.072Z,11.77
2019-04-26T00:11:00.085Z,11.83
2019-04-26T00:12:00.075Z,11.8
2019-04-26T00:13:34.176Z,11.87
2019-04-26T00:14:00.113Z,11.91
2019-04-26T00:15:00.626Z,11.97
2019-04-26T00:16:00.113Z,11.87
2019-04-26T00:17:00.622Z,11.8
2019-04-26T00:18:00.111Z,11.8
2019-04-26T00:19:00.092Z,11.72
2019-04-26T00:20:00.662Z,11.83
2019-04-26T00:21:00.345Z,11.77
2019-04-26T00:22:00.906Z,11.73
2019-04-26T00:23:00.083Z,11.75
2019-04-26T00:24:00.588Z,11.73
2019-04-26T00:25:00.380Z,11.68
2019-04-26T00:26:00.052Z,11.77
2019-04-26T00:27:00.063Z,11.72
2019-04-26T00:28:00.298Z,11.72
2019-04-26T00:29:00.302Z,11.63
2019-04-26T00:30:00.682Z,11.55
2019-04-26T00:31:00.274Z,11.59
2019-04-26T00:32:00.381Z,11.62
2019-04-26T00:33:00.596Z,11.51
2019-04-26T00:34:00.880Z,11.57
2019-04-26T00:35:00.537Z,11.59
2019-04-26T00:36:00.493Z,11.59
2019-04-26T00:37:00.353Z,11.65
2019-04-26T00:38:00.610Z,11.7
2019-04-26T00:39:00.543Z,11.7
2019-04-26T00:40:01.239Z,11.72
2019-04-26T00:41:00.626Z,11.77
2019-04-26T00:42:00.775Z,11.77
2019-04-26T00:43:02.912Z,11.75
2019-04-26T00:44:00.766Z,11.69
2019-04-26T00:45:00.432Z,11.75
2019-04-26T00:46:00.356Z,11.69
2019-04-26T00:47:00.610Z,11.68
2019-04-26T00:48:00.560Z,11.66
2019-04-26T00:49:00.328Z,11.54
2019-04-26T00:50:01.299Z,11.59
2019-04-26T00:51:00.529Z,11.55
2019-04-26T00:52:00.676Z,11.63
2019-04-26T00:53:00.512Z,11.57
2019-04-26T00:54:00.356Z,11.51
2019-04-26T00:55:00.420Z,11.48
2019-04-26T00:56:00.109Z,11.44
2019-04-26T00:57:00.297Z,11.36
2019-04-26T00:58:00.522Z,11.35
2019-04-26T00:59:00.578Z,11.4
2019-04-26T01:00:00.393Z,11.4
2019-04-26T01:01:00.400Z,11.33
2019-04-26T01:02:00.230Z,11.33
2019-04-26T01:03:00.297Z,11.26
2019-04-26T01:04:00.163Z,11.27
2019-04-26T01:05:00.216Z,11.19
2019-04-26T01:06:05.317Z,11.26
2019-04-26T01:06:59.969Z,11.32
2019-04-26T01:07:59.934Z,11.3
2019-04-26T01:09:00.027Z,11.3
2019-04-26T01:09:59.952Z,11.22
2019-04-26T01:11:02.847Z,11.23
2019-04-26T01:11:59.940Z,11.19
2019-04-26T01:13:00.197Z,11.12
2019-04-26T01:14:00.310Z,11.15
2019-04-26T01:15:00.228Z,11.23
2019-04-26T01:16:00.739Z,11.25
2019-04-26T01:17:00.269Z,11.27
2019-04-26T01:18:00.806Z,11.27
2019-04-26T01:19:00.217Z,11.15
2019-04-26T01:19:59.906Z,11.23
2019-04-26T01:20:59.835Z,11.18
2019-04-26T01:22:00.450Z,11.32
2019-04-26T01:22:59.887Z,11.35
2019-04-26T01:23:59.891Z,11.26
2019-04-26T01:25:00.138Z,11.22
2019-04-26T01:26:00.440Z,11.27
2019-04-26T01:26:59.932Z,11.19
2019-04-26T01:28:00.094Z,11.23
2019-04-26T01:29:00.256Z,11.22
2019-04-26T01:30:00.584Z,11.23
2019-04-26T01:31:00.527Z,11.29
2019-04-26T01:31:59.974Z,11.22
2019-04-26T01:32:59.774Z,11.3
2019-04-26T01:36:19.174Z,11.22
2019-04-26T01:36:39.928Z,11.18
2019-04-26T01:37:39.383Z,11.1
2019-04-26T01:38:39.422Z,11.18
2019-04-26T01:39:39.777Z,11.18
2019-04-26T01:40:39.639Z,11.1
2019-04-26T01:41:39.549Z,11.04
2019-04-26T01:42:39.221Z,10.97
2019-04-26T01:43:39.817Z,10.93
2019-04-26T01:44:40.404Z,10.93
2019-04-26T01:45:39.690Z,10.99
2019-04-26T01:46:39.923Z,11.1
2019-04-26T01:47:39.422Z,11.17
2019-04-26T01:48:39.162Z,11.17
2019-04-26T01:49:39.399Z,11.23
2019-04-26T01:50:39.152Z,11.11
2019-04-26T01:51:39.143Z,11.18
2019-04-26T01:52:39.385Z,11.26
2019-04-26T01:53:39.390Z,11.25
2019-04-26T01:54:39.135Z,11.23
2019-04-26T01:55:39.131Z,11.17
2019-04-26T01:56:40.226Z,11.15
2019-04-26T01:57:38.889Z,11.08
2019-04-26T01:58:39.129Z,11.17
2019-04-26T01:59:39.368Z,11.08
2019-04-26T02:00:38.848Z,11.22
2019-04-26T02:01:39.084Z,11.25
2019-04-26T02:02:39.347Z,11.3
2019-04-26T02:03:39.345Z,11.26
2019-04-26T02:04:38.833Z,11.3
2019-04-26T02:05:39.334Z,11.22
2019-04-26T02:06:40.103Z,11.17
2019-04-26T02:07:39.311Z,11.26
2019-04-26T02:08:39.078Z,11.32
2019-04-26T02:09:39.348Z,11.27
2019-04-26T02:10:39.117Z,11.33
2019-04-26T02:11:39.145Z,11.43
2019-04-26T02:12:39.088Z,11.45
2019-04-26T02:13:39.095Z,11.41
2019-04-26T02:14:39.095Z,11.5
2019-04-26T02:15:39.097Z,11.47
2019-04-26T02:16:39.318Z,11.51
2019-04-26T02:17:39.354Z,11.5
2019-04-26T02:18:39.330Z,11.52
2019-04-26T02:19:39.082Z,11.45
2019-04-26T02:20:39.322Z,11.5
2019-04-26T02:21:39.293Z,11.47
2019-04-26T02:22:39.295Z,11.5
2019-04-26T02:23:39.036Z,11.54
2019-04-26T02:24:39.026Z,11.51
2019-04-26T02:25:39.282Z,11.47
2019-04-26T02:26:43.114Z,11.51
2019-04-26T02:27:38.941Z,11.47
2019-04-26T02:28:39.371Z,11.5
2019-04-26T02:29:39.337Z,11.48
2019-04-26T02:30:41.506Z,11.51
2019-04-26T02:31:42.116Z,11.44
2019-04-26T02:32:41.735Z,11.41
2019-04-26T02:33:41.205Z,11.4
2019-04-26T02:34:41.821Z,11.41
2019-04-26T02:35:40.102Z,11.4
2019-04-26T02:37:01.599Z,11.45
2019-04-26T02:37:40.797Z,11.48
2019-04-26T02:38:41.391Z,11.32
2019-04-26T02:39:42.005Z,11.32
2019-04-26T02:40:39.374Z,11.35
2019-04-26T02:41:41.652Z,11.37
2019-04-26T02:42:41.140Z,11.33
2019-04-26T02:43:41.468Z,11.36
2019-04-26T02:44:41.264Z,11.43
2019-04-26T02:45:42.654Z,11.36
2019-04-26T02:46:41.317Z,11.32
2019-04-26T02:47:41.735Z,11.33
2019-04-26T02:48:40.982Z,11.37
2019-04-26T02:49:41.436Z,11.29
2019-04-26T02:50:41.089Z,11.27
2019-04-26T02:51:41.051Z,11.3
2019-04-26T02:52:41.928Z,11.23
2019-04-26T02:53:41.405Z,11.22
2019-04-26T02:54:40.838Z,11.29
2019-04-26T02:55:46.296Z,11.17
2019-04-26T02:56:42.725Z,11.12
2019-04-26T02:57:41.281Z,11.11
2019-04-26T02:58:44.828Z,11.17
2019-04-26T02:59:43.297Z,11.25
2019-04-26T03:00:41.376Z,11.19
2019-04-26T03:01:42.379Z,11.29
2019-04-26T03:02:42.991Z,11.3
2019-04-26T03:03:42.249Z,11.33
2019-04-26T03:04:42.042Z,11.33
2019-04-26T03:05:42.341Z,11.33
2019-04-26T03:07:01.595Z,11.45
2019-04-26T03:07:42.771Z,11.37
2019-04-26T03:08:42.721Z,11.47
2019-04-26T03:09:41.204Z,11.41
2019-04-26T03:10:43.411Z,11.44
2019-04-26T03:11:41.330Z,11.47
2019-04-26T03:12:43.155Z,11.45
2019-04-26T03:13:43.676Z,11.44
2019-04-26T03:14:42.224Z,11.54
2019-04-26T03:15:42.657Z,11.48
2019-04-26T03:16:43.208Z,11.41
2019-04-26T03:17:43.029Z,11.44
2019-04-26T03:18:43.191Z,11.37
2019-04-26T03:19:43.034Z,11.4
2019-04-26T03:20:42.310Z,11.32
2019-04-26T03:21:43.287Z,11.3
2019-04-26T03:22:43.159Z,11.4
2019-04-26T03:24:01.805Z,11.41
2019-04-26T03:24:43.287Z,11.32
2019-04-26T03:25:42.529Z,11.3
2019-04-26T03:26:43.528Z,11.33
2019-04-26T03:27:45.751Z,11.32
2019-04-26T03:28:44.456Z,11.37
2019-04-26T03:29:44.367Z,11.25
2019-04-26T03:30:54.678Z,11.33
2019-04-26T03:31:56.003Z,11.26
2019-04-26T03:32:55.916Z,11.32
2019-04-26T03:33:56.256Z,11.35
2019-04-26T03:34:56.520Z,11.4
2019-04-26T03:35:59.975Z,11.4
2019-04-26T03:36:44.850Z,11.43
2019-04-26T03:37:44.405Z,11.35
2019-04-26T03:38:43.540Z,11.37
2019-04-26T03:39:44.565Z,11.4
2019-04-26T03:40:44.485Z,11.43
2019-04-26T03:41:44.553Z,11.5
2019-04-26T03:42:44.106Z,11.45
2019-04-26T03:43:44.503Z,11.48
2019-04-26T03:44:44.160Z,11.48
2019-04-26T03:45:44.617Z,11.5
2019-04-26T03:46:45.124Z,11.51
2019-04-26T03:47:45.910Z,11.48
2019-04-26T03:48:44.778Z,11.55
2019-04-26T03:49:45.629Z,11.52
2019-04-26T03:50:44.876Z,11.52
2019-04-26T03:51:44.941Z,11.59
2019-04-26T03:52:44.034Z,11.54
2019-04-26T03:53:44.358Z,11.51
2019-04-26T03:54:42.768Z,11.47
2019-04-26T03:55:43.660Z,11.47
2019-04-26T03:56:43.563Z,11.45
2019-04-26T03:57:44.193Z,11.47
2019-04-26T03:58:43.605Z,11.52
2019-04-26T03:59:44.160Z,11.5
2019-04-26T04:00:44.979Z,11.45
2019-04-26T04:01:44.304Z,11.57
2019-04-26T04:02:45.501Z,11.44
2019-04-26T04:03:47.560Z,11.41
2019-04-26T04:04:46.441Z,11.5
2019-04-26T04:05:43.671Z,11.48
2019-04-26T04:07:06.220Z,11.44
2019-04-26T04:07:51.756Z,11.33
2019-04-26T04:08:42.926Z,11.43
2019-04-26T04:09:42.825Z,11.36
2019-04-26T04:10:43.519Z,11.36
2019-04-26T04:11:44.084Z,11.41
2019-04-26T04:12:43.711Z,11.27
2019-04-26T04:13:45.602Z,11.37
2019-04-26T04:14:41.913Z,11.35
2019-04-26T04:15:41.993Z,11.4
2019-04-26T04:16:42.834Z,11.45
2019-04-26T04:17:43.724Z,11.44
2019-04-26T04:18:41.832Z,11.4
2019-04-26T04:19:42.081Z,11.44
2019-04-26T04:20:42.466Z,11.51
2019-04-26T04:21:42.564Z,11.36
2019-04-26T04:22:43.297Z,11.43
2019-04-26T04:23:41.759Z,11.48
2019-04-26T04:24:39.617Z,11.47
2019-04-26T04:25:43.665Z,11.4
2019-04-26T04:26:43.249Z,11.43
2019-04-26T04:27:39.944Z,11.37
2019-04-26T04:28:43.945Z,11.37
2019-04-26T04:29:55.708Z,11.43
2019-04-26T04:30:40.534Z,11.47
2019-04-26T04:31:40.239Z,11.4
2019-04-26T04:32:39.802Z,11.45
2019-04-26T04:33:40.660Z,11.43
2019-04-26T04:34:40.039Z,11.43
2019-04-26T04:35:40.401Z,11.47
2019-04-26T04:36:41.433Z,11.41
2019-04-26T04:38:08.302Z,11.45
2019-04-26T04:38:38.660Z,11.55
2019-04-26T04:39:38.706Z,11.44
2019-04-26T04:40:38.663Z,11.52
2019-04-26T04:41:38.645Z,11.6
2019-04-26T04:42:38.269Z,11.55
2019-04-26T04:43:41.809Z,11.59
2019-04-26T04:44:38.420Z,11.6
2019-04-26T04:45:38.846Z,11.59
2019-04-26T04:46:38.627Z,11.59
2019-04-26T04:47:38.397Z,11.57
2019-04-26T04:48:38.668Z,11.54
2019-04-26T04:49:38.625Z,11.57
2019-04-26T04:50:38.650Z,11.59
2019-04-26T04:51:38.402Z,11.59
2019-04-26T04:52:38.357Z,11.68
2019-04-26T04:53:38.600Z,11.73
2019-04-26T04:54:38.593Z,11.68
2019-04-26T04:55:38.631Z,11.72
2019-04-26T04:56:38.380Z,11.78
2019-04-26T04:57:38.598Z,11.75
2019-04-26T04:58:38.790Z,11.86
2019-04-26T04:59:38.356Z,11.9
2019-04-26T05:00:38.576Z,11.84
2019-04-26T05:01:38.636Z,11.91
2019-04-26T05:02:38.645Z,11.97
2019-04-26T05:03:38.073Z,11.88
2019-04-26T05:04:38.330Z,11.86
2019-04-26T05:05:38.312Z,11.95
2019-04-26T05:06:38.041Z,11.94
2019-04-26T05:07:38.316Z,11.91
2019-04-26T05:08:38.532Z,11.91
2019-04-26T05:09:38.313Z,11.88
2019-04-26T05:10:38.531Z,11.86
2019-04-26T05:11:38.302Z,11.88
2019-04-26T05:12:38.274Z,11.78
2019-04-26T05:13:38.272Z,11.78
2019-04-26T05:14:38.532Z,11.78
2019-04-26T05:15:38.255Z,11.69
2019-04-26T05:16:38.554Z,11.68
2019-04-26T05:17:38.275Z,11.69
2019-04-26T05:18:38.265Z,11.65
2019-04-26T05:19:38.490Z,11.75
2019-04-26T05:20:38.254Z,11.73
2019-04-26T05:21:38.479Z,11.77
2019-04-26T05:22:38.246Z,11.86
2019-04-26T05:23:38.488Z,11.8
2019-04-26T05:24:38.236Z,11.72
2019-04-26T05:25:40.259Z,11.75
2019-04-26T05:26:38.218Z,11.77
2019-04-26T05:27:38.219Z,11.83
2019-04-26T05:28:38.449Z,11.77
2019-04-26T05:29:38.431Z,11.78
2019-04-26T05:30:38.449Z,11.84
2019-04-26T05:31:38.441Z,11.84
2019-04-26T05:32:38.422Z,11.81
2019-04-26T05:33:38.431Z,11.84
2019-04-26T05:34:37.934Z,11.86
2019-04-26T05:35:38.160Z,11.88
2019-04-26T05:36:38.155Z,11.81
2019-04-26T05:37:39.689Z,11.81
2019-04-26T05:38:38.165Z,11.75
2019-04-26T05:39:38.398Z,11.7
2019-04-26T05:40:37.894Z,11.75
2019-04-26T05:41:38.399Z,11.73
2019-04-26T05:42:38.400Z,11.7
2019-04-26T05:43:38.379Z,11.73
2019-04-26T05:44:38.126Z,11.68
2019-04-26T05:45:40.550Z,11.77
2019-04-26T05:46:38.382Z,11.66
2019-04-26T05:47:38.374Z,11.68
2019-04-26T05:48:38.379Z,11.68
2019-04-26T05:49:38.346Z,11.54
2019-04-26T05:50:38.347Z,11.65
2019-04-26T05:51:38.342Z,11.57
2019-04-26T05:52:38.339Z,11.65
2019-04-26T05:53:38.332Z,11.72
2019-04-26T05:54:38.347Z,11.77
2019-04-26T05:55:38.074Z,11.55
2019-04-26T05:56:38.326Z,11.54
2019-04-26T05:57:38.073Z,11.62
2019-04-26T05:58:38.344Z,11.59
2019-04-26T05:59:38.322Z,11.55
2019-04-26T06:00:38.325Z,11.52
2019-04-26T06:01:38.066Z,11.47
2019-04-26T06:02:38.297Z,11.37
2019-04-26T06:03:38.275Z,11.37
2019-04-26T06:04:38.314Z,11.4
2019-04-26T06:05:38.272Z,11.37
2019-04-26T06:06:38.035Z,11.36
2019-04-26T06:07:38.265Z,11.35
2019-04-26T06:08:38.260Z,11.4
2019-04-26T06:09:38.259Z,11.3
2019-04-26T06:10:38.004Z,11.29
2019-04-26T06:11:37.760Z,11.3
2019-04-26T06:12:38.045Z,11.26
2019-04-26T06:13:38.243Z,11.22
2019-04-26T06:14:38.001Z,11.15
2019-04-26T06:15:38.004Z,11.12
2019-04-26T06:16:38.001Z,11.12
2019-04-26T06:17:38.513Z,11.11
2019-04-26T06:18:38.211Z,11.12
2019-04-26T06:19:38.768Z,11.12
2019-04-26T06:20:38.217Z,11.17
2019-04-26T06:21:38.213Z,11.25
2019-04-26T06:22:37.955Z,11.17
2019-04-26T06:23:37.954Z,11.25
2019-04-26T06:24:37.957Z,11.23
2019-04-26T06:25:37.979Z,11.22
2019-04-26T06:26:38.193Z,11.3
2019-04-26T06:27:37.699Z,11.17
2019-04-26T06:28:37.927Z,11.18
2019-04-26T06:29:39.206Z,11.17
2019-04-26T06:30:49.804Z,11.22
2019-04-26T06:31:37.921Z,11.08
2019-04-26T06:32:38.241Z,11.14
2019-04-26T06:33:37.964Z,11.15
2019-04-26T06:34:37.890Z,11.25
2019-04-26T06:35:38.151Z,11.15
2019-04-26T06:36:37.915Z,11.22
2019-04-26T06:37:38.130Z,11.22
2019-04-26T06:38:48.331Z,11.23
2019-04-26T06:39:38.114Z,11.22
2019-04-26T06:40:46.469Z,11.15
2019-04-26T06:41:37.861Z,11.15
2019-04-26T06:42:37.867Z,11.22
2019-04-26T06:43:38.097Z,11.18
2019-04-26T06:44:37.606Z,11.23
2019-04-26T06:45:38.084Z,11.19
2019-04-26T06:46:38.149Z,11.1
2019-04-26T06:47:38.071Z,11.14
2019-04-26T06:48:37.820Z,11.08
2019-04-26T06:49:38.082Z,10.97
2019-04-26T06:50:38.060Z,11.08
2019-04-26T06:51:38.067Z,10.97
2019-04-26T06:52:37.803Z,10.82
2019-04-26T06:53:38.062Z,10.74
2019-04-26T06:54:38.050Z,10.69
2019-04-26T06:55:38.060Z,10.69
2019-04-26T06:56:37.790Z,10.71
2019-04-26T06:57:38.081Z,10.74
2019-04-26T06:58:38.025Z,10.69
2019-04-26T06:59:43.034Z,10.63
2019-04-26T07:00:38.012Z,10.63
2019-04-26T07:01:38.014Z,10.72
2019-04-26T07:02:38.009Z,10.72
2019-04-26T07:03:37.998Z,10.72
2019-04-26T07:04:37.997Z,10.79
2019-04-26T07:05:37.986Z,10.75
2019-04-26T07:06:40.145Z,10.76
2019-04-26T07:07:37.744Z,10.82
2019-04-26T07:08:37.740Z,10.84
2019-04-26T07:09:37.973Z,10.82
2019-04-26T07:10:37.958Z,10.93
2019-04-26T07:11:38.151Z,10.94
2019-04-26T07:12:37.722Z,10.97
2019-04-26T07:13:37.963Z,10.92
2019-04-26T07:14:37.956Z,10.93
2019-04-26T07:15:38.002Z,10.76
2019-04-26T07:16:37.696Z,10.89
2019-04-26T07:17:37.688Z,10.79
2019-04-26T07:18:37.678Z,10.86
2019-04-26T07:19:37.931Z,10.86
2019-04-26T07:20:37.926Z,10.81
2019-04-26T07:21:37.928Z,10.76
2019-04-26T07:22:40.442Z,10.76
2019-04-26T07:23:37.658Z,10.69
2019-04-26T07:24:37.915Z,10.74
2019-04-26T07:25:37.911Z,10.75
2019-04-26T07:26:37.883Z,10.64
2019-04-26T07:27:37.644Z,10.68
2019-04-26T07:28:37.401Z,10.67
2019-04-26T07:29:37.886Z,10.6
2019-04-26T07:30:39.292Z,10.54
2019-04-26T07:31:37.713Z,10.61
2019-04-26T07:32:37.856Z,10.56
2019-04-26T07:33:37.604Z,10.68
2019-04-26T07:34:37.614Z,10.68
2019-04-26T07:35:37.877Z,10.69
2019-04-26T07:36:37.859Z,10.67
2019-04-26T07:37:37.592Z,10.74
2019-04-26T07:38:37.832Z,10.75
2019-04-26T07:39:37.577Z,10.78
2019-04-26T07:40:37.569Z,10.76
2019-04-26T07:41:37.570Z,10.71
2019-04-26T07:42:37.816Z,10.72
2019-04-26T07:43:37.819Z,10.71
2019-04-26T07:44:37.797Z,10.75
2019-04-26T07:45:37.633Z,10.74
2019-04-26T07:46:37.804Z,10.74
2019-04-26T07:47:37.805Z,10.76
2019-04-26T07:48:37.809Z,10.68
2019-04-26T07:49:37.563Z,10.71
2019-04-26T07:50:37.515Z,10.63
2019-04-26T07:51:37.265Z,10.61
2019-04-26T07:52:37.581Z,10.59
2019-04-26T07:53:37.757Z,10.56
2019-04-26T07:54:37.240Z,10.51
2019-04-26T07:55:37.517Z,10.53
2019-04-26T07:56:37.751Z,10.57
2019-04-26T07:57:37.754Z,10.53
2019-04-26T07:58:37.758Z,10.53
2019-04-26T07:59:37.741Z,10.59
2019-04-26T08:00:49.428Z,10.63
2019-04-26T08:01:37.741Z,10.63
2019-04-26T08:02:37.739Z,10.54
2019-04-26T08:03:37.569Z,10.72
2019-04-26T08:04:37.544Z,10.75
2019-04-26T08:05:37.718Z,10.82
2019-04-26T08:06:37.903Z,10.82
2019-04-26T08:07:37.469Z,10.96
2019-04-26T08:08:37.712Z,10.94
2019-04-26T08:09:37.711Z,10.99
2019-04-26T08:10:37.447Z,11.1
2019-04-26T08:11:37.463Z,11.1
2019-04-26T08:12:37.454Z,11.11
2019-04-26T08:13:37.436Z,11.12
2019-04-26T08:14:37.692Z,11.14
2019-04-26T08:15:37.674Z,11.12
2019-04-26T08:16:37.408Z,11.12
2019-04-26T08:17:37.176Z,11.08
2019-04-26T08:18:37.669Z,11.19
2019-04-26T08:19:37.680Z,11.1
2019-04-26T08:20:37.673Z,11.23
2019-04-26T08:21:37.644Z,11.27
2019-04-26T08:22:38.447Z,11.33
2019-04-26T08:23:46.694Z,11.14
2019-04-26T08:24:37.399Z,11.19
2019-04-26T08:25:37.694Z,11.1
2019-04-26T08:26:37.680Z,11.19
2019-04-26T08:27:37.625Z,11.25
2019-04-26T08:28:37.621Z,11.32
2019-04-26T08:29:39.276Z,11.32
2019-04-26T08:30:40.420Z,11.4
2019-04-26T08:31:38.457Z,11.32
2019-04-26T08:32:37.983Z,11.27
2019-04-26T08:33:40.364Z,11.22
2019-04-26T08:34:38.391Z,11.25
2019-04-26T08:35:37.673Z,11.17
2019-04-26T08:36:37.685Z,11.22
2019-04-26T08:37:40.913Z,11.23
2019-04-26T08:38:37.563Z,11.25
2019-04-26T08:39:53.913Z,11.36
2019-04-26T08:40:37.314Z,11.37
2019-04-26T08:41:41.738Z,11.44
2019-04-26T08:42:37.313Z,11.48
2019-04-26T08:43:37.305Z,11.48
2019-04-26T08:44:39.446Z,11.47
2019-04-26T08:45:37.538Z,11.51
2019-04-26T08:46:41.065Z,11.59
2019-04-26T08:47:37.541Z,11.59
2019-04-26T08:48:37.052Z,11.6
2019-04-26T08:49:41.732Z,11.68
2019-04-26T08:50:37.276Z,11.69
2019-04-26T08:51:37.024Z,11.6
2019-04-26T08:52:37.513Z,11.6
2019-04-26T08:53:37.031Z,11.57
2019-04-26T08:54:37.280Z,11.54
2019-04-26T08:55:37.500Z,11.52
2019-04-26T08:56:37.250Z,11.55
2019-04-26T08:57:37.502Z,11.5
2019-04-26T08:58:37.243Z,11.54
2019-04-26T08:59:37.501Z,11.55
2019-04-26T09:00:37.492Z,11.51
2019-04-26T09:01:37.473Z,11.48
2019-04-26T09:02:37.225Z,11.37
2019-04-26T09:03:37.470Z,11.35
2019-04-26T09:04:37.492Z,11.37
2019-04-26T09:05:37.470Z,11.47
2019-04-26T09:06:37.464Z,11.4
2019-04-26T09:07:38.914Z,11.44
2019-04-26T09:08:39.152Z,11.47
2019-04-26T09:09:37.461Z,11.59
2019-04-26T09:10:39.194Z,11.57
2019-04-26T09:11:38.600Z,11.57
2019-04-26T09:12:37.202Z,11.59
2019-04-26T09:13:37.457Z,11.54
2019-04-26T09:14:37.188Z,11.62
2019-04-26T09:15:37.183Z,11.57
2019-04-26T09:16:49.519Z,11.72
2019-04-26T09:17:38.617Z,11.73
2019-04-26T09:18:59.321Z,11.73
2019-04-26T09:19:37.200Z,11.65
2019-04-26T09:20:42.754Z,11.78
2019-04-26T09:21:36.950Z,11.8
2019-04-26T09:22:36.917Z,11.86
2019-04-26T09:23:51.919Z,11.88
2019-04-26T09:24:37.147Z,11.91
2019-04-26T09:25:41.786Z,12
2019-04-26T09:26:37.294Z,11.99
2019-04-26T09:27:37.419Z,12.04
2019-04-26T09:28:37.141Z,12.09
2019-04-26T09:29:37.384Z,12.1
2019-04-26T09:30:42.267Z,12.07
2019-04-26T09:31:37.147Z,12.12
2019-04-26T09:32:37.841Z,12.12
2019-04-26T09:33:40.769Z,12.21
2019-04-26T09:34:41.154Z,12.2
2019-04-26T09:35:37.356Z,12.18
2019-04-26T09:36:37.113Z,12.21
2019-04-26T09:37:37.354Z,12.31
2019-04-26T09:38:37.341Z,12.37
2019-04-26T09:39:41.524Z,12.31
2019-04-26T09:40:37.100Z,12.28
2019-04-26T09:41:37.094Z,12.27
2019-04-26T09:42:41.984Z,12.21
2019-04-26T09:43:37.091Z,12.18
2019-04-26T09:44:41.313Z,12.2
2019-04-26T09:45:37.332Z,12.31
2019-04-26T09:46:37.324Z,12.31
2019-04-26T09:47:36.856Z,12.35
2019-04-26T09:48:38.968Z,12.35
2019-04-26T09:49:41.112Z,12.42
2019-04-26T09:50:37.072Z,12.5
2019-04-26T09:51:41.472Z,12.47
2019-04-26T09:52:37.325Z,12.53
2019-04-26T09:53:39.408Z,12.39
2019-04-26T09:54:37.069Z,12.39
2019-04-26T09:55:40.446Z,12.29
2019-04-26T09:56:37.318Z,12.31
2019-04-26T09:57:37.313Z,12.32
2019-04-26T09:58:36.808Z,12.28
2019-04-26T09:59:39.938Z,12.31
2019-04-26T10:00:37.395Z,12.29
2019-04-26T10:01:37.329Z,12.29
2019-04-26T10:02:42.562Z,12.36
2019-04-26T10:03:39.222Z,12.29
2019-04-26T10:04:37.276Z,12.47
2019-04-26T10:05:37.037Z,12.42
2019-04-26T10:06:37.282Z,12.32
2019-04-26T10:07:40.028Z,12.25
2019-04-26T10:08:37.274Z,12.36
2019-04-26T10:09:36.783Z,12.37
2019-04-26T10:10:40.180Z,12.32
2019-04-26T10:11:39.494Z,12.24
2019-04-26T10:12:37.274Z,12.22
2019-04-26T10:13:37.245Z,12.24
2019-04-26T10:14:37.012Z,12.21
2019-04-26T10:15:38.989Z,12.2
2019-04-26T10:16:42.327Z,12.17
2019-04-26T10:17:37.241Z,12.22
2019-04-26T10:18:37.226Z,12.24
2019-04-26T10:19:37.637Z,12.31
2019-04-26T10:20:36.986Z,12.27
2019-04-26T10:21:37.218Z,12.21
2019-04-26T10:22:37.245Z,12.18
2019-04-26T10:23:36.957Z,12.17
2019-04-26T10:24:37.227Z,12.06
2019-04-26T10:25:37.201Z,12.06
2019-04-26T10:26:36.956Z,12.1
2019-04-26T10:27:40.619Z,12.15
2019-04-26T10:28:36.971Z,12.09
2019-04-26T10:29:37.198Z,12.22
2019-04-26T10:30:42.266Z,12.29
2019-04-26T10:31:37.224Z,12.18
2019-04-26T10:32:37.177Z,12.1
2019-04-26T10:33:41.362Z,12.03
2019-04-26T10:34:36.687Z,12.06
2019-04-26T10:35:36.929Z,11.97
2019-04-26T10:36:37.162Z,11.94
2019-04-26T10:37:47.993Z,11.97
2019-04-26T10:38:36.935Z,12.03
2019-04-26T10:39:39.534Z,12.07
2019-04-26T10:40:40.094Z,12.04
2019-04-26T10:41:36.657Z,12.09
2019-04-26T10:42:37.142Z,12.07
2019-04-26T10:43:37.127Z,12.03
2019-04-26T10:44:42.575Z,12.06
2019-04-26T10:45:37.151Z,11.97
2019-04-26T10:46:37.125Z,11.99
2019-04-26T10:47:40.949Z,11.94
2019-04-26T10:48:36.873Z,11.9
2019-04-26T10:49:37.112Z,11.97
2019-04-26T10:50:37.719Z,12
2019-04-26T10:51:43.714Z,12.12
2019-04-26T10:52:36.880Z,12.1
2019-04-26T10:53:36.876Z,12.17
2019-04-26T10:54:45.909Z,12.2
2019-04-26T10:55:36.848Z,12.18
2019-04-26T10:56:37.126Z,12.18
2019-04-26T10:57:37.086Z,12.22
2019-04-26T10:58:41.034Z,12.36
2019-04-26T10:59:39.694Z,12.29
2019-04-26T11:00:37.091Z,12.5
2019-04-26T11:01:36.831Z,12.62
2019-04-26T11:02:37.089Z,12.65
2019-04-26T11:03:39.575Z,12.62
2019-04-26T11:04:43.331Z,12.65
2019-04-26T11:05:37.060Z,12.67
2019-04-26T11:06:37.080Z,12.78
2019-04-26T11:07:36.820Z,12.85
2019-04-26T11:08:37.067Z,12.8
2019-04-26T11:09:37.061Z,12.87
2019-04-26T11:10:47.859Z,12.93
2019-04-26T11:11:37.041Z,12.9
2019-04-26T11:12:39.548Z,12.9
2019-04-26T11:13:36.822Z,12.82
2019-04-26T11:14:37.040Z,12.8
2019-04-26T11:15:38.803Z,12.87
2019-04-26T11:16:41.102Z,12.91
2019-04-26T11:17:37.035Z,12.83
2019-04-26T11:18:37.073Z,12.72
2019-04-26T11:19:44.021Z,12.73
2019-04-26T11:20:36.786Z,12.72
2019-04-26T11:21:37.026Z,12.75
2019-04-26T11:22:41.684Z,12.64
2019-04-26T11:23:37.012Z,12.79
2019-04-26T11:24:37.014Z,12.75
2019-04-26T11:25:36.766Z,12.75
2019-04-26T11:26:39.752Z,12.72
2019-04-26T11:27:40.045Z,12.82
2019-04-26T11:28:36.768Z,12.83
2019-04-26T11:29:37.007Z,12.94
2019-04-26T11:30:36.991Z,12.97
2019-04-26T11:31:36.746Z,13.04
2019-04-26T11:32:39.266Z,13.13
2019-04-26T11:34:04.420Z,13.16
2019-04-26T11:34:37.034Z,13.28
2019-04-26T11:35:38.046Z,13.42
2019-04-26T11:36:41.661Z,13.56
2019-04-26T11:37:36.994Z,13.59
2019-04-26T11:38:37.527Z,13.42
2019-04-26T11:39:40.345Z,13.52
2019-04-26T11:40:36.985Z,13.52
2019-04-26T11:41:40.088Z,13.53
2019-04-26T11:42:36.972Z,13.46
2019-04-26T11:43:36.965Z,13.5
2019-04-26T11:44:36.746Z,13.44
2019-04-26T11:45:37.024Z,13.47
2019-04-26T11:46:49.453Z,13.47
2019-04-26T11:47:55.381Z,13.47
2019-04-26T11:48:36.962Z,13.57
2019-04-26T11:49:41.468Z,13.56
2019-04-26T11:50:36.717Z,13.47
2019-04-26T11:51:36.944Z,13.28
2019-04-26T11:52:40.423Z,13.15
2019-04-26T11:53:40.357Z,13.05
2019-04-26T11:54:36.945Z,13.01
2019-04-26T11:55:36.949Z,13.09
2019-04-26T11:56:40.151Z,13
2019-04-26T11:57:36.688Z,13
2019-04-26T11:58:36.934Z,12.98
2019-04-26T11:59:36.688Z,12.8
2019-04-26T12:00:36.936Z,12.72
2019-04-26T12:01:40.363Z,12.68
2019-04-26T12:02:36.935Z,12.72
2019-04-26T12:03:36.679Z,12.73
2019-04-26T12:04:36.915Z,12.7
2019-04-26T12:05:36.671Z,12.8
2019-04-26T12:06:36.669Z,12.85
2019-04-26T12:07:36.950Z,12.82
2019-04-26T12:08:36.440Z,12.85
2019-04-26T12:09:36.907Z,12.78
2019-04-26T12:10:40.284Z,12.78
2019-04-26T12:12:03.887Z,12.78
2019-04-26T12:12:36.928Z,12.72
2019-04-26T12:13:36.979Z,12.8
2019-04-26T12:14:38.471Z,12.79
2019-04-26T12:15:38.924Z,12.83
2019-04-26T12:16:51.366Z,12.8
2019-04-26T12:17:40.724Z,12.8
2019-04-26T12:18:40.145Z,12.79
2019-04-26T12:19:36.899Z,12.75
2019-04-26T12:20:36.432Z,12.64
2019-04-26T12:21:38.796Z,12.76
2019-04-26T12:22:39.282Z,12.68
2019-04-26T12:23:36.858Z,12.67
2019-04-26T12:24:38.961Z,12.79
2019-04-26T12:25:38.643Z,12.87
2019-04-26T12:26:51.899Z,13.13
2019-04-26T12:27:36.921Z,13.19
2019-04-26T12:28:39.867Z,13.31
2019-04-26T12:29:36.608Z,13.57
2019-04-26T12:30:36.851Z,13.81
2019-04-26T12:31:36.854Z,13.85
2019-04-26T12:32:36.848Z,13.85
2019-04-26T12:33:43.563Z,14.14
2019-04-26T12:34:36.586Z,14.18
2019-04-26T12:35:36.880Z,14.35
2019-04-26T12:36:36.385Z,14.54
2019-04-26T12:37:36.850Z,14.79
2019-04-26T12:38:38.442Z,14.86
2019-04-26T12:39:41.214Z,15.03
2019-04-26T12:40:36.592Z,15.21
2019-04-26T12:41:45.174Z,15.47
2019-04-26T12:42:36.837Z,15.46
2019-04-26T12:43:36.583Z,15.58
2019-04-26T12:44:43.574Z,15.54
2019-04-26T12:45:36.585Z,15.62
2019-04-26T12:46:36.871Z,15.54
2019-04-26T12:47:41.261Z,15.57
2019-04-26T12:48:36.831Z,15.44
2019-04-26T12:49:37.952Z,15.4
2019-04-26T12:50:41.540Z,15.37
2019-04-26T12:51:38.232Z,15.24
2019-04-26T12:52:39.835Z,15.11
2019-04-26T12:53:37.528Z,15
2019-04-26T12:54:38.946Z,14.84
2019-04-26T12:55:36.601Z,14.62
2019-04-26T12:56:37.332Z,14.6
2019-04-26T12:57:40.709Z,14.55